createdAt,value
2018-06-17T00:00:56.963Z,983.02
2018-06-17T00:02:50.496Z,983.01
2018-06-17T00:03:50.096Z,983.02
2018-06-17T00:05:43.536Z,983.05
2018-06-17T00:06:43.127Z,983.08
2018-06-17T00:08:36.644Z,983.07
2018-06-17T00:09:36.139Z,983.02
2018-06-17T00:11:29.586Z,983.00
2018-06-17T00:12:29.075Z,983.00
2018-06-17T00:14:22.538Z,982.98
2018-06-17T00:15:22.045Z,983.03
2018-06-17T00:17:15.589Z,983.04
2018-06-17T00:18:15.100Z,983.05
2018-06-17T00:20:10.063Z,983.03
2018-06-17T00:21:09.559Z,983.03
2018-06-17T00:23:03.161Z,983.05
2018-06-17T00:24:03.088Z,983.06
2018-06-17T00:25:56.484Z,983.03
2018-06-17T00:26:56.103Z,983.05
2018-06-17T00:28:49.156Z,983.03
2018-06-17T00:29:49.045Z,983.05
2018-06-17T00:31:42.077Z,983.08
2018-06-17T00:32:42.052Z,982.99
2018-06-17T00:34:35.096Z,982.96
2018-06-17T00:35:34.904Z,982.97
2018-06-17T00:37:28.070Z,982.97
2018-06-17T00:38:27.676Z,982.96
2018-06-17T00:40:21.150Z,982.91
2018-06-17T00:41:20.638Z,982.93
2018-06-17T00:43:14.162Z,982.93
2018-06-17T00:44:13.711Z,982.91
2018-06-17T00:46:07.170Z,982.93
2018-06-17T00:47:06.762Z,982.93
2018-06-17T00:49:00.131Z,982.97
2018-06-17T00:49:59.641Z,982.91
2018-06-17T00:51:53.055Z,982.96
2018-06-17T00:52:52.650Z,982.93
2018-06-17T00:54:45.987Z,982.95
2018-06-17T00:55:45.573Z,982.97
2018-06-17T00:57:39.025Z,982.96
2018-06-17T00:58:38.507Z,982.96
2018-06-17T01:00:44.238Z,982.99
2018-06-17T01:01:43.763Z,983.00
2018-06-17T01:03:37.662Z,983.01
2018-06-17T01:05:50.205Z,983.06
2018-06-17T01:06:49.738Z,983.02
2018-06-17T01:08:43.197Z,983.07
2018-06-17T01:09:42.670Z,983.08
2018-06-17T01:11:36.066Z,983.08
2018-06-17T01:12:35.950Z,983.05
2018-06-17T01:14:52.976Z,983.03
2018-06-17T01:15:32.488Z,983.03
2018-06-17T01:17:26.617Z,983.02
2018-06-17T01:18:26.574Z,983.03
2018-06-17T01:20:19.602Z,982.99
2018-06-17T01:21:19.078Z,982.96
2018-06-17T01:23:12.665Z,982.96
2018-06-17T01:25:25.691Z,982.95
2018-06-17T01:26:25.222Z,982.95
2018-06-17T01:27:26.063Z,982.95
2018-06-17T01:28:25.512Z,982.92
2018-06-17T01:29:25.905Z,982.94
2018-06-17T01:30:25.430Z,982.95
2018-06-17T01:31:25.388Z,982.94
2018-06-17T01:32:25.374Z,982.95
2018-06-17T01:33:24.904Z,982.97
2018-06-17T01:34:25.240Z,982.95
2018-06-17T01:35:25.216Z,982.93
2018-06-17T01:36:25.245Z,982.93
2018-06-17T01:37:25.171Z,982.92
2018-06-17T01:38:25.146Z,982.88
2018-06-17T01:39:25.050Z,982.90
2018-06-17T01:40:25.041Z,982.89
2018-06-17T01:41:25.046Z,982.88
2018-06-17T01:42:24.992Z,982.89
2018-06-17T01:43:24.949Z,982.91
2018-06-17T01:44:24.835Z,982.91
2018-06-17T01:45:24.479Z,982.92
2018-06-17T01:46:24.866Z,982.96
2018-06-17T01:47:24.782Z,982.93
2018-06-17T01:48:24.737Z,982.93
2018-06-17T01:49:25.229Z,982.91
2018-06-17T01:50:24.722Z,982.90
2018-06-17T01:51:24.641Z,982.88
2018-06-17T01:52:25.113Z,982.90
2018-06-17T01:53:24.499Z,982.90
2018-06-17T01:54:24.559Z,982.91
2018-06-17T01:55:24.976Z,982.91
2018-06-17T01:56:24.477Z,982.91
2018-06-17T01:57:24.415Z,982.87
2018-06-17T01:58:24.888Z,982.87
2018-06-17T01:59:24.326Z,982.91
2018-06-17T02:00:24.753Z,982.87
2018-06-17T02:01:23.861Z,982.89
2018-06-17T02:02:24.247Z,982.92
2018-06-17T02:03:24.173Z,982.94
2018-06-17T02:04:24.664Z,982.91
2018-06-17T02:05:24.623Z,982.89
2018-06-17T02:06:24.239Z,982.88
2018-06-17T02:07:24.028Z,982.87
2018-06-17T02:08:23.967Z,982.88
2018-06-17T02:09:24.023Z,982.90
2018-06-17T02:10:23.945Z,982.91
2018-06-17T02:11:23.908Z,982.89
2018-06-17T02:12:23.876Z,982.89
2018-06-17T02:13:23.828Z,982.89
2018-06-17T02:14:24.243Z,982.87
2018-06-17T02:15:23.730Z,982.86
2018-06-17T02:16:23.674Z,982.87
2018-06-17T02:17:23.670Z,982.85
2018-06-17T02:18:23.614Z,982.87
2018-06-17T02:19:23.563Z,982.86
2018-06-17T02:20:23.541Z,982.85
2018-06-17T02:21:23.127Z,982.90
2018-06-17T02:22:23.510Z,982.90
2018-06-17T02:23:23.431Z,982.86
2018-06-17T02:24:23.406Z,982.87
2018-06-17T02:25:23.393Z,982.85
2018-06-17T02:26:23.380Z,982.86
2018-06-17T02:27:23.305Z,982.87
2018-06-17T02:28:23.299Z,982.86
2018-06-17T02:29:23.184Z,982.82
2018-06-17T02:30:23.232Z,982.85
2018-06-17T02:31:23.165Z,982.85
2018-06-17T02:32:23.118Z,982.85
2018-06-17T02:33:23.108Z,982.87
2018-06-17T02:34:23.510Z,982.85
2018-06-17T02:35:22.654Z,982.84
2018-06-17T02:36:22.911Z,982.86
2018-06-17T02:37:22.895Z,982.88
2018-06-17T02:38:22.905Z,982.88
2018-06-17T02:39:22.906Z,982.88
2018-06-17T02:40:23.141Z,982.89
2018-06-17T02:41:22.772Z,982.88
2018-06-17T02:42:23.241Z,982.84
2018-06-17T02:43:23.244Z,982.84
2018-06-17T02:44:22.697Z,982.83
2018-06-17T02:45:22.650Z,982.84
2018-06-17T02:46:22.617Z,982.83
2018-06-17T02:47:22.561Z,982.84
2018-06-17T02:48:22.553Z,982.83
2018-06-17T02:49:23.521Z,982.81
2018-06-17T02:50:22.422Z,982.89
2018-06-17T02:51:22.933Z,982.86
2018-06-17T02:52:22.927Z,982.86
2018-06-17T02:53:21.983Z,982.85
2018-06-17T02:54:22.292Z,982.86
2018-06-17T02:55:22.302Z,982.89
2018-06-17T02:56:22.227Z,982.90
2018-06-17T02:57:22.161Z,982.91
2018-06-17T02:58:22.201Z,982.91
2018-06-17T02:59:22.126Z,982.89
2018-06-17T03:00:22.592Z,982.95
2018-06-17T03:01:22.523Z,982.89
2018-06-17T03:02:22.056Z,982.89
2018-06-17T03:03:22.022Z,982.86
2018-06-17T03:04:21.595Z,982.87
2018-06-17T03:05:21.941Z,982.90
2018-06-17T03:06:21.845Z,982.87
2018-06-17T03:07:21.789Z,982.88
2018-06-17T03:08:21.791Z,982.85
2018-06-17T03:09:21.819Z,982.90
2018-06-17T03:10:21.694Z,982.88
2018-06-17T03:11:21.670Z,982.86
2018-06-17T03:12:21.613Z,982.88
2018-06-17T03:13:21.597Z,982.87
2018-06-17T03:14:22.094Z,982.89
2018-06-17T03:15:22.049Z,982.88
2018-06-17T03:16:21.529Z,982.89
2018-06-17T03:17:21.449Z,982.88
2018-06-17T03:18:21.380Z,982.88
2018-06-17T03:19:21.403Z,982.87
2018-06-17T03:20:20.982Z,982.84
2018-06-17T03:21:21.338Z,982.86
2018-06-17T03:22:21.292Z,982.85
2018-06-17T03:23:21.742Z,982.87
2018-06-17T03:24:21.739Z,982.83
2018-06-17T03:25:21.656Z,982.87
2018-06-17T03:26:21.307Z,982.86
2018-06-17T03:27:21.041Z,982.85
2018-06-17T03:28:21.085Z,982.84
2018-06-17T03:29:21.478Z,982.84
2018-06-17T03:30:21.446Z,982.86
2018-06-17T03:31:20.975Z,982.82
2018-06-17T03:32:21.375Z,982.80
2018-06-17T03:33:20.873Z,982.80
2018-06-17T03:34:20.876Z,982.82
2018-06-17T03:35:20.804Z,982.85
2018-06-17T03:36:21.226Z,982.84
2018-06-17T03:37:21.261Z,982.84
2018-06-17T03:38:21.132Z,982.85
2018-06-17T03:39:20.689Z,982.81
2018-06-17T03:40:20.168Z,982.80
2018-06-17T03:41:20.592Z,982.83
2018-06-17T03:42:20.468Z,982.80
2018-06-17T03:43:20.493Z,982.84
2018-06-17T03:44:20.490Z,982.83
2018-06-17T03:45:20.426Z,982.84
2018-06-17T03:46:20.809Z,982.86
2018-06-17T03:47:20.380Z,982.88
2018-06-17T03:48:20.316Z,982.85
2018-06-17T03:49:20.293Z,982.81
2018-06-17T03:50:20.744Z,982.84
2018-06-17T03:51:20.176Z,982.84
2018-06-17T03:52:20.187Z,982.84
2018-06-17T03:53:20.136Z,982.85
2018-06-17T03:54:20.575Z,982.81
2018-06-17T03:55:20.527Z,982.82
2018-06-17T03:56:20.017Z,982.82
2018-06-17T03:57:19.963Z,982.86
2018-06-17T03:58:19.560Z,982.88
2018-06-17T03:59:20.393Z,982.93
2018-06-17T04:00:19.824Z,982.90
2018-06-17T04:01:20.359Z,982.94
2018-06-17T04:02:20.238Z,982.93
2018-06-17T04:03:19.713Z,982.95
2018-06-17T04:04:19.714Z,983.01
2018-06-17T04:05:19.708Z,983.06
2018-06-17T04:06:19.573Z,983.08
2018-06-17T04:07:20.127Z,983.06
2018-06-17T04:08:19.511Z,983.08
2018-06-17T04:09:19.539Z,983.09
2018-06-17T04:10:19.543Z,983.08
2018-06-17T04:11:19.451Z,983.10
2018-06-17T04:12:19.462Z,983.12
2018-06-17T04:13:19.354Z,983.15
2018-06-17T04:14:19.332Z,983.16
2018-06-17T04:15:19.785Z,983.15
2018-06-17T04:16:19.271Z,983.16
2018-06-17T04:17:19.736Z,983.18
2018-06-17T04:18:19.700Z,983.18
2018-06-17T04:19:19.175Z,983.16
2018-06-17T04:20:19.131Z,983.20
2018-06-17T04:21:19.601Z,983.18
2018-06-17T04:22:19.102Z,983.22
2018-06-17T04:23:19.022Z,983.24
2018-06-17T04:24:19.003Z,983.28
2018-06-17T04:25:19.461Z,983.25
2018-06-17T04:26:18.507Z,983.28
2018-06-17T04:27:18.906Z,983.30
2018-06-17T04:28:18.817Z,983.26
2018-06-17T04:29:19.330Z,983.24
2018-06-17T04:30:18.736Z,983.28
2018-06-17T04:31:18.747Z,983.27
2018-06-17T04:32:19.238Z,983.22
2018-06-17T04:33:19.180Z,983.24
2018-06-17T04:34:19.098Z,983.17
2018-06-17T04:35:18.633Z,983.18
2018-06-17T04:36:18.574Z,983.16
2018-06-17T04:37:18.540Z,983.14
2018-06-17T04:38:18.987Z,983.13
2018-06-17T04:39:18.503Z,983.15
2018-06-17T04:40:18.380Z,983.20
2018-06-17T04:41:18.451Z,983.19
2018-06-17T04:42:18.400Z,983.21
2018-06-17T04:43:18.331Z,983.19
2018-06-17T04:44:18.304Z,983.19
2018-06-17T04:45:18.259Z,983.17
2018-06-17T04:46:18.225Z,983.16
2018-06-17T04:47:18.691Z,983.16
2018-06-17T04:48:17.766Z,983.12
2018-06-17T04:49:18.180Z,983.11
2018-06-17T04:50:18.606Z,983.12
2018-06-17T04:51:18.079Z,983.09
2018-06-17T04:52:18.080Z,983.13
2018-06-17T04:53:18.036Z,983.17
2018-06-17T04:54:18.031Z,983.21
2018-06-17T04:55:18.003Z,983.20
2018-06-17T04:56:17.859Z,983.19
2018-06-17T04:57:18.470Z,983.21
2018-06-17T04:58:17.847Z,983.18
2018-06-17T04:59:17.874Z,983.24
2018-06-17T05:00:19.633Z,983.26
2018-06-17T05:01:17.789Z,983.23
2018-06-17T05:02:17.752Z,983.23
2018-06-17T05:03:17.735Z,983.24
2018-06-17T05:04:17.663Z,983.26
2018-06-17T05:05:17.252Z,983.29
2018-06-17T05:06:17.592Z,983.32
2018-06-17T05:07:17.628Z,983.33
2018-06-17T05:08:17.541Z,983.39
2018-06-17T05:09:17.572Z,983.40
2018-06-17T05:10:18.006Z,983.49
2018-06-17T05:11:17.486Z,983.41
2018-06-17T05:12:17.453Z,983.44
2018-06-17T05:13:17.348Z,983.43
2018-06-17T05:14:17.402Z,983.42
2018-06-17T05:15:17.341Z,983.42
2018-06-17T05:16:17.331Z,983.42
2018-06-17T05:17:17.748Z,983.42
2018-06-17T05:18:17.780Z,983.45
2018-06-17T05:19:16.851Z,983.41
2018-06-17T05:20:17.251Z,983.46
2018-06-17T05:21:17.195Z,983.47
2018-06-17T05:22:17.166Z,983.52
2018-06-17T05:23:17.146Z,983.47
2018-06-17T05:24:17.152Z,983.49
2018-06-17T05:25:17.067Z,983.47
2018-06-17T05:26:17.066Z,983.46
2018-06-17T05:27:16.930Z,983.37
2018-06-17T05:28:16.955Z,983.32
2018-06-17T05:29:16.960Z,983.35
2018-06-17T05:30:16.978Z,983.34
2018-06-17T05:31:16.539Z,983.39
2018-06-17T05:32:16.948Z,983.41
2018-06-17T05:33:16.873Z,983.42
2018-06-17T05:34:16.772Z,983.40
2018-06-17T05:35:16.803Z,983.39
2018-06-17T05:36:16.822Z,983.43
2018-06-17T05:37:16.756Z,983.47
2018-06-17T05:38:16.769Z,983.47
2018-06-17T05:39:16.653Z,983.49
2018-06-17T05:40:17.214Z,983.42
2018-06-17T05:41:16.577Z,983.45
2018-06-17T05:42:16.614Z,983.46
2018-06-17T05:43:17.119Z,983.40
2018-06-17T05:44:17.071Z,983.46
2018-06-17T05:45:16.575Z,983.48
2018-06-17T05:46:16.557Z,983.46
2018-06-17T05:47:16.100Z,983.48
2018-06-17T05:48:16.466Z,983.49
2018-06-17T05:49:16.501Z,983.50
2018-06-17T05:50:16.440Z,983.46
2018-06-17T05:51:16.391Z,983.46
2018-06-17T05:52:16.387Z,983.47
2018-06-17T05:53:16.372Z,983.47
2018-06-17T05:54:16.326Z,983.48
2018-06-17T05:55:16.255Z,983.50
2018-06-17T05:56:16.240Z,983.55
2018-06-17T05:57:16.240Z,983.52
2018-06-17T05:58:16.228Z,983.51
2018-06-17T05:59:15.753Z,983.54
2018-06-17T06:00:16.664Z,983.49
2018-06-17T06:01:19.071Z,983.49
2018-06-17T06:02:16.195Z,983.56
2018-06-17T06:03:16.555Z,983.55
2018-06-17T06:04:16.055Z,983.58
2018-06-17T06:05:16.021Z,983.59
2018-06-17T06:06:15.919Z,983.56
2018-06-17T06:07:15.951Z,983.58
2018-06-17T06:08:15.899Z,983.57
2018-06-17T06:09:15.918Z,983.52
2018-06-17T06:10:15.868Z,983.48
2018-06-17T06:11:15.791Z,983.46
2018-06-17T06:12:15.814Z,983.48
2018-06-17T06:13:15.792Z,983.49
2018-06-17T06:14:15.345Z,983.53
2018-06-17T06:15:16.253Z,983.53
2018-06-17T06:16:16.265Z,983.54
2018-06-17T06:17:15.700Z,983.60
2018-06-17T06:18:15.641Z,983.60
2018-06-17T06:19:15.625Z,983.59
2018-06-17T06:20:15.552Z,983.62
2018-06-17T06:21:15.629Z,983.63
2018-06-17T06:22:15.546Z,983.72
2018-06-17T06:23:15.548Z,983.67
2018-06-17T06:24:15.509Z,983.68
2018-06-17T06:25:15.508Z,983.72
2018-06-17T06:26:15.440Z,983.73
2018-06-17T06:27:15.421Z,983.76
2018-06-17T06:28:15.427Z,983.77
2018-06-17T06:29:15.316Z,983.80
2018-06-17T06:30:14.957Z,983.79
2018-06-17T06:31:15.329Z,983.78
2018-06-17T06:32:15.185Z,983.76
2018-06-17T06:33:15.286Z,983.77
2018-06-17T06:34:15.265Z,983.79
2018-06-17T06:35:15.654Z,983.74
2018-06-17T06:36:15.191Z,983.73
2018-06-17T06:37:15.138Z,983.71
2018-06-17T06:38:15.139Z,983.71
2018-06-17T06:39:15.101Z,983.76
2018-06-17T06:40:15.071Z,983.77
2018-06-17T06:41:15.535Z,983.85
2018-06-17T06:42:15.001Z,983.89
2018-06-17T06:43:15.031Z,983.89
2018-06-17T06:44:15.482Z,983.90
2018-06-17T06:45:14.823Z,983.88
2018-06-17T06:46:14.516Z,983.89
2018-06-17T06:47:14.864Z,983.88
2018-06-17T06:48:14.828Z,983.86
2018-06-17T06:49:14.860Z,983.85
2018-06-17T06:50:14.758Z,983.92
2018-06-17T06:51:14.768Z,983.90
2018-06-17T06:52:14.767Z,983.95
2018-06-17T06:53:14.713Z,983.96
2018-06-17T06:54:14.619Z,984.03
2018-06-17T06:55:14.667Z,984.02
2018-06-17T06:56:14.657Z,984.02
2018-06-17T06:57:14.250Z,984.05
2018-06-17T06:58:14.551Z,984.04
2018-06-17T06:59:14.499Z,984.04
2018-06-17T07:00:14.487Z,983.97
2018-06-17T07:01:14.458Z,984.02
2018-06-17T07:02:14.430Z,984.03
2018-06-17T07:03:14.954Z,984.04
2018-06-17T07:04:14.393Z,984.04
2018-06-17T07:05:14.338Z,984.13
2018-06-17T07:06:14.262Z,984.12
2018-06-17T07:07:14.317Z,984.11
2018-06-17T07:08:14.290Z,984.08
2018-06-17T07:09:14.209Z,984.14
2018-06-17T07:10:14.242Z,984.12
2018-06-17T07:11:13.828Z,984.07
2018-06-17T07:12:14.085Z,984.15
2018-06-17T07:13:14.121Z,984.17
2018-06-17T07:14:14.119Z,984.17
2018-06-17T07:15:14.094Z,984.15
2018-06-17T07:16:14.004Z,984.19
2018-06-17T07:17:14.072Z,984.24
2018-06-17T07:18:14.023Z,984.23
2018-06-17T07:19:14.511Z,984.25
2018-06-17T07:20:14.055Z,984.28
2018-06-17T07:21:13.962Z,984.23
2018-06-17T07:22:13.970Z,984.28
2018-06-17T07:23:14.446Z,984.27
2018-06-17T07:24:13.865Z,984.22
2018-06-17T07:25:13.435Z,984.22
2018-06-17T07:26:13.771Z,984.26
2018-06-17T07:27:13.833Z,984.27
2018-06-17T07:28:13.802Z,984.19
2018-06-17T07:29:14.348Z,984.26
2018-06-17T07:30:13.766Z,984.24
2018-06-17T07:31:13.723Z,984.22
2018-06-17T07:32:13.729Z,984.27
2018-06-17T07:33:13.660Z,984.28
2018-06-17T07:34:13.661Z,984.26
2018-06-17T07:35:13.694Z,984.26
2018-06-17T07:36:13.775Z,984.31
2018-06-17T07:37:13.655Z,984.34
2018-06-17T07:38:13.616Z,984.36
2018-06-17T07:39:13.169Z,984.30
2018-06-17T07:40:13.526Z,984.38
2018-06-17T07:41:13.519Z,984.37
2018-06-17T07:42:13.564Z,984.30
2018-06-17T07:43:13.505Z,984.35
2018-06-17T07:44:15.075Z,984.38
2018-06-17T07:45:13.487Z,984.38
2018-06-17T07:46:13.664Z,984.37
2018-06-17T07:47:13.051Z,984.33
2018-06-17T07:48:12.999Z,984.37
2018-06-17T07:49:12.970Z,984.36
2018-06-17T07:50:12.890Z,984.41
2018-06-17T07:51:13.024Z,984.40
2018-06-17T07:52:12.959Z,984.39
2018-06-17T07:53:13.244Z,984.40
2018-06-17T07:54:13.246Z,984.38
2018-06-17T07:55:12.962Z,984.40
2018-06-17T07:56:13.232Z,984.36
2018-06-17T07:57:13.155Z,984.37
2018-06-17T07:58:13.175Z,984.39
2018-06-17T07:59:13.105Z,984.42
2018-06-17T08:00:13.641Z,984.39
2018-06-17T08:01:13.047Z,984.42
2018-06-17T08:02:13.073Z,984.44
2018-06-17T08:03:13.060Z,984.38
2018-06-17T08:04:12.692Z,984.43
2018-06-17T08:05:12.970Z,984.46
2018-06-17T08:06:13.050Z,984.39
2018-06-17T08:07:12.990Z,984.43
2018-06-17T08:08:12.968Z,984.42
2018-06-17T08:09:12.909Z,984.39
2018-06-17T08:10:12.921Z,984.39
2018-06-17T08:11:12.846Z,984.37
2018-06-17T08:12:12.882Z,984.36
2018-06-17T08:13:12.843Z,984.37
2018-06-17T08:14:12.840Z,984.29
2018-06-17T08:15:12.425Z,984.29
2018-06-17T08:16:12.786Z,984.27
2018-06-17T08:17:12.798Z,984.22
2018-06-17T08:18:12.660Z,984.24
2018-06-17T08:19:12.755Z,984.24
2018-06-17T08:20:12.788Z,984.25
2018-06-17T08:21:12.665Z,984.27
2018-06-17T08:22:12.660Z,984.31
2018-06-17T08:23:12.721Z,984.28
2018-06-17T08:24:12.634Z,984.25
2018-06-17T08:25:12.524Z,984.27
2018-06-17T08:26:12.272Z,984.25
2018-06-17T08:27:12.646Z,984.23
2018-06-17T08:28:12.557Z,984.28
2018-06-17T08:29:12.561Z,984.26
2018-06-17T08:30:12.516Z,984.29
2018-06-17T08:31:12.492Z,984.25
2018-06-17T08:32:12.488Z,984.28
2018-06-17T08:33:12.495Z,984.30
2018-06-17T08:34:12.405Z,984.28
2018-06-17T08:35:12.441Z,984.30
2018-06-17T08:36:12.413Z,984.31
2018-06-17T08:37:12.351Z,984.31
2018-06-17T08:38:12.400Z,984.30
2018-06-17T08:39:12.324Z,984.30
2018-06-17T08:40:11.944Z,984.34
2018-06-17T08:41:12.275Z,984.33
2018-06-17T08:42:12.359Z,984.33
2018-06-17T08:43:12.228Z,984.30
2018-06-17T08:44:12.272Z,984.31
2018-06-17T08:45:12.247Z,984.38
2018-06-17T08:46:12.252Z,984.35
2018-06-17T08:47:12.708Z,984.35
2018-06-17T08:48:12.250Z,984.33
2018-06-17T08:49:12.207Z,984.36
2018-06-17T08:50:12.088Z,984.39
2018-06-17T08:51:12.176Z,984.42
2018-06-17T08:52:12.118Z,984.45
2018-06-17T08:53:12.182Z,984.40
2018-06-17T08:54:12.006Z,984.46
2018-06-17T08:55:12.036Z,984.43
2018-06-17T08:56:12.013Z,984.44
2018-06-17T08:57:11.921Z,984.45
2018-06-17T08:58:11.995Z,984.43
2018-06-17T08:59:12.008Z,984.48
2018-06-17T09:00:11.562Z,984.43
2018-06-17T09:01:11.901Z,984.49
2018-06-17T09:02:11.853Z,984.49
2018-06-17T09:03:11.917Z,984.44
2018-06-17T09:04:11.868Z,984.46
2018-06-17T09:05:11.827Z,984.52
2018-06-17T09:06:11.792Z,984.56
2018-06-17T09:07:11.756Z,984.60
2018-06-17T09:08:11.744Z,984.58
2018-06-17T09:09:11.750Z,984.58
2018-06-17T09:10:11.640Z,984.60
2018-06-17T09:11:11.668Z,984.57
2018-06-17T09:12:11.589Z,984.63
2018-06-17T09:13:11.662Z,984.60
2018-06-17T09:14:11.257Z,984.61
2018-06-17T09:15:11.619Z,984.64
2018-06-17T09:16:11.109Z,984.63
2018-06-17T09:17:11.204Z,984.71
2018-06-17T09:18:11.068Z,984.68
2018-06-17T09:19:11.033Z,984.69
2018-06-17T09:20:11.015Z,984.73
2018-06-17T09:21:11.026Z,984.71
2018-06-17T09:22:10.974Z,984.73
2018-06-17T09:23:10.952Z,984.77
2018-06-17T09:24:10.920Z,984.78
2018-06-17T09:25:10.949Z,984.83
2018-06-17T09:26:10.878Z,984.86
2018-06-17T09:27:10.843Z,984.88
2018-06-17T09:28:11.312Z,984.82
2018-06-17T09:29:10.764Z,984.80
2018-06-17T09:30:10.806Z,984.77
2018-06-17T09:31:10.725Z,984.72
2018-06-17T09:32:10.741Z,984.67
2018-06-17T09:33:10.676Z,984.65
2018-06-17T09:34:10.670Z,984.65
2018-06-17T09:35:10.603Z,984.57
2018-06-17T09:36:10.579Z,984.62
2018-06-17T09:37:10.668Z,984.60
2018-06-17T09:38:10.519Z,984.63
2018-06-17T09:39:10.523Z,984.61
2018-06-17T09:40:10.477Z,984.62
2018-06-17T09:41:10.428Z,984.61
2018-06-17T09:42:10.454Z,984.58
2018-06-17T09:43:10.397Z,984.58
2018-06-17T09:44:10.402Z,984.57
2018-06-17T09:45:10.492Z,984.53
2018-06-17T09:46:10.335Z,984.55
2018-06-17T09:47:10.268Z,984.57
2018-06-17T09:48:10.258Z,984.56
2018-06-17T09:49:10.209Z,984.53
2018-06-17T09:50:10.189Z,984.55
2018-06-17T09:51:10.148Z,984.53
2018-06-17T09:52:10.145Z,984.50
2018-06-17T09:53:10.121Z,984.52
2018-06-17T09:54:10.077Z,984.54
2018-06-17T09:55:10.061Z,984.54
2018-06-17T09:56:10.012Z,984.56
2018-06-17T09:57:09.998Z,984.61
2018-06-17T09:58:09.956Z,984.61
2018-06-17T09:59:09.916Z,984.65
2018-06-17T10:00:09.888Z,984.64
2018-06-17T10:01:09.897Z,984.61
2018-06-17T10:02:09.833Z,984.64
2018-06-17T10:03:09.813Z,984.60
2018-06-17T10:04:09.782Z,984.61
2018-06-17T10:05:09.761Z,984.61
2018-06-17T10:06:09.734Z,984.63
2018-06-17T10:07:09.746Z,984.56
2018-06-17T10:08:09.713Z,984.51
2018-06-17T10:09:09.732Z,984.58
2018-06-17T10:10:09.630Z,984.58
2018-06-17T10:11:09.663Z,984.54
2018-06-17T10:12:09.573Z,984.53
2018-06-17T10:13:09.537Z,984.56
2018-06-17T10:14:09.518Z,984.52
2018-06-17T10:15:09.516Z,984.55
2018-06-17T10:16:09.467Z,984.52
2018-06-17T10:17:09.448Z,984.55
2018-06-17T10:18:09.406Z,984.57
2018-06-17T10:19:09.380Z,984.57
2018-06-17T10:20:09.385Z,984.59
2018-06-17T10:21:09.377Z,984.60
2018-06-17T10:22:09.298Z,984.62
2018-06-17T10:23:09.309Z,984.59
2018-06-17T10:24:09.271Z,984.58
2018-06-17T10:25:09.243Z,984.56
2018-06-17T10:26:09.202Z,984.52
2018-06-17T10:27:09.190Z,984.52
2018-06-17T10:28:09.158Z,984.48
2018-06-17T10:29:09.141Z,984.49
2018-06-17T10:30:09.125Z,984.46
2018-06-17T10:31:09.087Z,984.42
2018-06-17T10:32:09.085Z,984.46
2018-06-17T10:33:09.028Z,984.45
2018-06-17T10:34:09.040Z,984.48
2018-06-17T10:35:09.027Z,984.45
2018-06-17T10:36:08.964Z,984.45
2018-06-17T10:37:08.950Z,984.48
2018-06-17T10:38:09.037Z,984.49
2018-06-17T10:39:08.898Z,984.53
2018-06-17T10:40:08.859Z,984.54
2018-06-17T10:41:08.840Z,984.52
2018-06-17T10:42:08.821Z,984.55
2018-06-17T10:43:08.792Z,984.50
2018-06-17T10:44:08.789Z,984.58
2018-06-17T10:45:08.749Z,984.56
2018-06-17T10:46:08.740Z,984.53
2018-06-17T10:47:08.701Z,984.57
2018-06-17T10:48:08.697Z,984.52
2018-06-17T10:49:08.663Z,984.59
2018-06-17T10:50:08.622Z,984.57
2018-06-17T10:51:08.615Z,984.55
2018-06-17T10:52:08.566Z,984.55
2018-06-17T10:53:08.544Z,984.56
2018-06-17T10:54:08.516Z,984.59
2018-06-17T10:55:08.508Z,984.57
2018-06-17T10:56:08.597Z,984.63
2018-06-17T10:57:08.446Z,984.55
2018-06-17T10:58:08.451Z,984.54
2018-06-17T10:59:08.415Z,984.53
2018-06-17T11:00:08.392Z,984.51
2018-06-17T11:01:08.368Z,984.48
2018-06-17T11:02:08.328Z,984.51
2018-06-17T11:03:08.300Z,984.47
2018-06-17T11:04:08.268Z,984.46
2018-06-17T11:05:08.294Z,984.46
2018-06-17T11:06:08.238Z,984.43
2018-06-17T11:07:08.223Z,984.37
2018-06-17T11:08:08.218Z,984.36
2018-06-17T11:09:08.181Z,984.41
2018-06-17T11:10:08.132Z,984.39
2018-06-17T11:11:08.116Z,984.38
2018-06-17T11:12:08.091Z,984.36
2018-06-17T11:13:08.109Z,984.28
2018-06-17T11:14:08.034Z,984.29
2018-06-17T11:15:08.009Z,984.29
2018-06-17T11:16:07.977Z,984.30
2018-06-17T11:17:07.959Z,984.29
2018-06-17T11:18:07.942Z,984.27
2018-06-17T11:19:07.903Z,984.25
2018-06-17T11:20:07.884Z,984.25
2018-06-17T11:21:07.859Z,984.25
2018-06-17T11:22:07.836Z,984.28
2018-06-17T11:23:07.824Z,984.27
2018-06-17T11:24:07.789Z,984.25
2018-06-17T11:25:07.764Z,984.26
2018-06-17T11:26:07.746Z,984.28
2018-06-17T11:27:07.728Z,984.24
2018-06-17T11:28:07.716Z,984.29
2018-06-17T11:29:07.679Z,984.27
2018-06-17T11:30:07.653Z,984.27
2018-06-17T11:31:07.617Z,984.32
2018-06-17T11:32:07.607Z,984.28
2018-06-17T11:33:07.563Z,984.31
2018-06-17T11:34:07.560Z,984.27
2018-06-17T11:35:07.514Z,984.29
2018-06-17T11:36:07.507Z,984.31
2018-06-17T11:37:07.484Z,984.29
2018-06-17T11:38:07.476Z,984.30
2018-06-17T11:39:07.559Z,984.30
2018-06-17T11:40:07.478Z,984.29
2018-06-17T11:41:07.385Z,984.27
2018-06-17T11:42:07.362Z,984.26
2018-06-17T11:43:07.368Z,984.28
2018-06-17T11:44:07.295Z,984.24
2018-06-17T11:45:07.277Z,984.20
2018-06-17T11:46:07.320Z,984.19
2018-06-17T11:47:07.220Z,984.18
2018-06-17T11:48:07.212Z,984.16
2018-06-17T11:49:07.683Z,984.17
2018-06-17T11:50:07.200Z,984.15
2018-06-17T11:51:07.131Z,984.12
2018-06-17T11:52:07.102Z,984.08
2018-06-17T11:53:07.094Z,984.08
2018-06-17T11:54:07.085Z,984.07
2018-06-17T11:55:07.047Z,984.04
2018-06-17T11:56:07.015Z,984.03
2018-06-17T11:57:07.001Z,984.02
2018-06-17T11:58:06.984Z,984.00
2018-06-17T11:59:06.944Z,984.00
2018-06-17T12:00:06.896Z,984.00
2018-06-17T12:01:06.891Z,984.03
2018-06-17T12:02:06.928Z,983.99
2018-06-17T12:03:06.888Z,984.02
2018-06-17T12:04:06.825Z,984.04
2018-06-17T12:05:06.816Z,984.00
2018-06-17T12:06:06.768Z,984.04
2018-06-17T12:07:06.754Z,984.02
2018-06-17T12:08:06.763Z,983.97
2018-06-17T12:09:06.719Z,983.93
2018-06-17T12:10:06.693Z,983.91
2018-06-17T12:11:06.648Z,983.89
2018-06-17T12:12:06.657Z,983.85
2018-06-17T12:13:06.629Z,983.83
2018-06-17T12:14:06.610Z,983.84
2018-06-17T12:15:06.590Z,983.83
2018-06-17T12:16:06.544Z,983.82
2018-06-17T12:17:07.211Z,983.80
2018-06-17T12:18:06.523Z,983.84
2018-06-17T12:19:06.620Z,983.88
2018-06-17T12:20:06.468Z,983.94
2018-06-17T12:21:06.481Z,983.90
2018-06-17T12:22:06.539Z,983.98
2018-06-17T12:23:06.465Z,983.96
2018-06-17T12:24:06.419Z,983.98
2018-06-17T12:25:06.478Z,984.01
2018-06-17T12:26:06.329Z,983.99
2018-06-17T12:27:06.321Z,984.00
2018-06-17T12:28:06.315Z,983.99
2018-06-17T12:29:06.272Z,984.01
2018-06-17T12:30:06.264Z,984.09
2018-06-17T12:31:06.325Z,984.11
2018-06-17T12:32:06.182Z,984.15
2018-06-17T12:33:06.169Z,984.12
2018-06-17T12:34:06.149Z,984.23
2018-06-17T12:35:06.129Z,984.26
2018-06-17T12:36:06.106Z,984.34
2018-06-17T12:37:06.136Z,984.31
2018-06-17T12:38:06.101Z,984.31
2018-06-17T12:39:06.063Z,984.32
2018-06-17T12:40:06.032Z,984.28
2018-06-17T12:41:06.069Z,984.24
2018-06-17T12:42:05.964Z,984.18
2018-06-17T12:43:05.947Z,984.16
2018-06-17T12:44:05.901Z,984.13
2018-06-17T12:45:05.906Z,984.16
2018-06-17T12:46:05.887Z,984.12
2018-06-17T12:47:05.873Z,984.09
2018-06-17T12:48:06.018Z,984.02
2018-06-17T12:49:05.828Z,984.02
2018-06-17T12:50:05.991Z,984.02
2018-06-17T12:51:05.843Z,984.01
2018-06-17T12:52:05.717Z,983.98
2018-06-17T12:53:05.703Z,984.03
2018-06-17T12:54:05.949Z,984.04
2018-06-17T12:55:05.925Z,984.03
2018-06-17T12:56:05.996Z,984.05